sensor_id;sensor_type;location;lat;lon;timestamp;P1;durP1;ratioP1;P2;durP2;ratioP2
48777;SDS011;34578;0.000;0.000;2024-02-04T00:02:07;1.63;;;1.33;;
48777;SDS011;34578;0.000;0.000;2024-02-04T00:07:09;1.48;;;1.17;;
48777;SDS011;34578;0.000;0.000;2024-02-04T00:12:10;1.83;;;1.00;;
48777;SDS011;34578;0.000;0.000;2024-02-04T00:17:10;3.55;;;0.90;;
48777;SDS011;34578;0.000;0.000;2024-02-04T00:22:11;1.65;;;1.00;;
48777;SDS011;34578;0.000;0.000;2024-02-04T00:27:11;5.27;;;1.07;;
48777;SDS011;34578;0.000;0.000;2024-02-04T00:32:11;2.20;;;1.00;;
48777;SDS011;34578;0.000;0.000;2024-02-04T00:37:12;2.47;;;1.30;;
48777;SDS011;34578;0.000;0.000;2024-02-04T00:42:12;1.43;;;1.13;;
48777;SDS011;34578;0.000;0.000;2024-02-04T00:47:13;3.87;;;1.60;;
48777;SDS011;34578;0.000;0.000;2024-02-04T00:52:13;2.08;;;1.20;;
48777;SDS011;34578;0.000;0.000;2024-02-04T00:57:13;3.17;;;1.57;;
48777;SDS011;34578;0.000;0.000;2024-02-04T01:02:14;1.70;;;1.10;;
48777;SDS011;34578;0.000;0.000;2024-02-04T01:07:14;1.83;;;1.03;;
48777;SDS011;34578;0.000;0.000;2024-02-04T01:12:17;1.63;;;0.90;;
48777;SDS011;34578;0.000;0.000;2024-02-04T01:17:17;2.23;;;1.00;;
48777;SDS011;34578;0.000;0.000;2024-02-04T01:22:18;0.97;;;0.87;;
48777;SDS011;34578;0.000;0.000;2024-02-04T01:27:18;1.80;;;1.10;;
48777;SDS011;34578;0.000;0.000;2024-02-04T01:32:21;5.75;;;1.42;;
48777;SDS011;34578;0.000;0.000;2024-02-04T01:37:23;1.67;;;1.13;;
48777;SDS011;34578;0.000;0.000;2024-02-04T01:42:26;2.47;;;1.20;;
48777;SDS011;34578;0.000;0.000;2024-02-04T01:47:27;2.70;;;1.27;;
48777;SDS011;34578;0.000;0.000;2024-02-04T01:52:27;1.50;;;1.17;;
48777;SDS011;34578;0.000;0.000;2024-02-04T01:57:29;2.65;;;1.42;;
48777;SDS011;34578;0.000;0.000;2024-02-04T02:02:29;1.85;;;1.42;;
48777;SDS011;34578;0.000;0.000;2024-02-04T02:07:31;5.07;;;1.20;;
48777;SDS011;34578;0.000;0.000;2024-02-04T02:12:36;2.28;;;1.40;;
48777;SDS011;34578;0.000;0.000;2024-02-04T02:17:44;2.35;;;1.50;;
48777;SDS011;34578;0.000;0.000;2024-02-04T02:22:52;2.38;;;1.35;;
48777;SDS011;34578;0.000;0.000;2024-02-04T02:28:10;2.70;;;1.15;;
48777;SDS011;34578;0.000;0.000;2024-02-04T02:33:11;3.83;;;1.13;;
48777;SDS011;34578;0.000;0.000;2024-02-04T02:38:17;2.53;;;1.30;;
48777;SDS011;34578;0.000;0.000;2024-02-04T02:43:25;4.28;;;1.20;;
48777;SDS011;34578;0.000;0.000;2024-02-04T02:48:27;2.97;;;1.17;;
48777;SDS011;34578;0.000;0.000;2024-02-04T02:53:29;3.92;;;1.42;;
48777;SDS011;34578;0.000;0.000;2024-02-04T02:58:31;2.45;;;1.35;;
48777;SDS011;34578;0.000;0.000;2024-02-04T03:03:32;2.78;;;1.15;;
48777;SDS011;34578;0.000;0.000;2024-02-04T03:08:33;3.45;;;2.25;;
48777;SDS011;34578;0.000;0.000;2024-02-04T03:13:33;6.03;;;2.17;;
48777;SDS011;34578;0.000;0.000;2024-02-04T03:18:33;6.50;;;1.43;;
48777;SDS011;34578;0.000;0.000;2024-02-04T03:23:34;2.00;;;1.48;;
48777;SDS011;34578;0.000;0.000;2024-02-04T03:28:34;2.93;;;1.50;;
48777;SDS011;34578;0.000;0.000;2024-02-04T03:33:35;3.90;;;1.40;;
48777;SDS011;34578;0.000;0.000;2024-02-04T03:38:36;3.00;;;1.30;;
48777;SDS011;34578;0.000;0.000;2024-02-04T03:43:36;3.58;;;1.42;;
48777;SDS011;34578;0.000;0.000;2024-02-04T03:48:37;2.75;;;1.35;;
48777;SDS011;34578;0.000;0.000;2024-02-04T03:53:38;1.75;;;1.30;;
48777;SDS011;34578;0.000;0.000;2024-02-04T03:58:38;2.22;;;1.50;;
48777;SDS011;34578;0.000;0.000;2024-02-04T04:03:39;2.67;;;1.30;;
48777;SDS011;34578;0.000;0.000;2024-02-04T04:08:40;2.67;;;1.40;;
48777;SDS011;34578;0.000;0.000;2024-02-04T04:13:41;5.50;;;1.77;;
48777;SDS011;34578;0.000;0.000;2024-02-04T04:18:41;2.73;;;1.20;;
48777;SDS011;34578;0.000;0.000;2024-02-04T04:23:41;2.70;;;1.40;;
48777;SDS011;34578;0.000;0.000;2024-02-04T04:28:42;2.70;;;1.30;;
48777;SDS011;34578;0.000;0.000;2024-02-04T04:33:42;3.07;;;1.47;;
48777;SDS011;34578;0.000;0.000;2024-02-04T04:38:42;5.33;;;1.50;;
48777;SDS011;34578;0.000;0.000;2024-02-04T04:43:43;2.73;;;1.60;;
48777;SDS011;34578;0.000;0.000;2024-02-04T04:48:43;2.27;;;1.20;;
48777;SDS011;34578;0.000;0.000;2024-02-04T04:53:44;2.77;;;1.00;;
48777;SDS011;34578;0.000;0.000;2024-02-04T04:58:44;2.43;;;1.30;;
48777;SDS011;34578;0.000;0.000;2024-02-04T05:03:44;1.63;;;1.13;;
48777;SDS011;34578;0.000;0.000;2024-02-04T05:08:45;3.15;;;0.93;;
48777;SDS011;34578;0.000;0.000;2024-02-04T05:13:46;2.37;;;1.37;;
48777;SDS011;34578;0.000;0.000;2024-02-04T05:18:46;3.57;;;1.30;;
48777;SDS011;34578;0.000;0.000;2024-02-04T05:23:46;1.90;;;1.03;;
48777;SDS011;34578;0.000;0.000;2024-02-04T05:28:47;4.07;;;1.33;;
48777;SDS011;34578;0.000;0.000;2024-02-04T05:33:47;2.10;;;1.47;;
48777;SDS011;34578;0.000;0.000;2024-02-04T05:38:47;3.87;;;1.30;;
48777;SDS011;34578;0.000;0.000;2024-02-04T05:43:48;2.87;;;1.07;;
48777;SDS011;34578;0.000;0.000;2024-02-04T05:48:48;2.63;;;1.50;;
48777;SDS011;34578;0.000;0.000;2024-02-04T05:53:49;3.17;;;1.30;;
48777;SDS011;34578;0.000;0.000;2024-02-04T05:58:49;1.57;;;1.10;;
48777;SDS011;34578;0.000;0.000;2024-02-04T06:03:51;3.20;;;1.55;;
48777;SDS011;34578;0.000;0.000;2024-02-04T06:08:51;2.70;;;1.70;;
48777;SDS011;34578;0.000;0.000;2024-02-04T06:13:52;4.88;;;1.17;;
48777;SDS011;34578;0.000;0.000;2024-02-04T06:18:52;4.53;;;1.30;;
48777;SDS011;34578;0.000;0.000;2024-02-04T06:23:55;1.95;;;1.13;;
48777;SDS011;34578;0.000;0.000;2024-02-04T06:28:55;3.08;;;1.27;;
48777;SDS011;34578;0.000;0.000;2024-02-04T06:33:56;2.27;;;1.43;;
48777;SDS011;34578;0.000;0.000;2024-02-04T06:38:59;5.30;;;1.45;;
48777;SDS011;34578;0.000;0.000;2024-02-04T06:43:59;7.20;;;1.40;;
48777;SDS011;34578;0.000;0.000;2024-02-04T06:49:00;8.38;;;2.20;;
48777;SDS011;34578;0.000;0.000;2024-02-04T06:54:01;6.75;;;2.05;;
48777;SDS011;34578;0.000;0.000;2024-02-04T06:59:01;4.13;;;1.80;;
48777;SDS011;34578;0.000;0.000;2024-02-04T07:04:01;2.80;;;1.80;;
48777;SDS011;34578;0.000;0.000;2024-02-04T07:09:02;2.93;;;1.47;;
48777;SDS011;34578;0.000;0.000;2024-02-04T07:14:02;6.13;;;1.45;;
48777;SDS011;34578;0.000;0.000;2024-02-04T07:19:03;8.60;;;2.35;;
48777;SDS011;34578;0.000;0.000;2024-02-04T07:24:04;10.43;;;2.15;;
48777;SDS011;34578;0.000;0.000;2024-02-04T07:29:04;5.30;;;1.67;;
48777;SDS011;34578;0.000;0.000;2024-02-04T07:34:05;3.67;;;1.90;;
48777;SDS011;34578;0.000;0.000;2024-02-04T07:39:05;4.10;;;1.92;;
48777;SDS011;34578;0.000;0.000;2024-02-04T07:44:06;2.87;;;1.73;;
48777;SDS011;34578;0.000;0.000;2024-02-04T07:49:06;5.30;;;1.83;;
48777;SDS011;34578;0.000;0.000;2024-02-04T07:54:07;3.20;;;1.90;;
48777;SDS011;34578;0.000;0.000;2024-02-04T07:59:07;5.43;;;1.90;;
48777;SDS011;34578;0.000;0.000;2024-02-04T08:04:07;6.83;;;2.50;;
48777;SDS011;34578;0.000;0.000;2024-02-04T08:09:10;8.15;;;2.88;;
48777;SDS011;34578;0.000;0.000;2024-02-04T08:14:11;5.57;;;2.28;;
48777;SDS011;34578;0.000;0.000;2024-02-04T08:19:14;6.13;;;2.15;;
48777;SDS011;34578;0.000;0.000;2024-02-04T08:24:14;4.63;;;1.77;;
48777;SDS011;34578;0.000;0.000;2024-02-04T08:29:14;3.53;;;2.17;;
48777;SDS011;34578;0.000;0.000;2024-02-04T08:34:15;13.35;;;2.47;;
48777;SDS011;34578;0.000;0.000;2024-02-04T08:39:15;6.68;;;1.75;;
48777;SDS011;34578;0.000;0.000;2024-02-04T08:44:16;10.33;;;2.00;;
48777;SDS011;34578;0.000;0.000;2024-02-04T08:49:16;6.27;;;2.13;;
48777;SDS011;34578;0.000;0.000;2024-02-04T08:54:16;8.07;;;2.10;;
48777;SDS011;34578;0.000;0.000;2024-02-04T08:59:17;3.20;;;1.67;;
48777;SDS011;34578;0.000;0.000;2024-02-04T09:04:18;2.53;;;1.67;;
48777;SDS011;34578;0.000;0.000;2024-02-04T09:09:18;2.77;;;1.50;;
48777;SDS011;34578;0.000;0.000;2024-02-04T09:14:18;6.20;;;2.00;;
48777;SDS011;34578;0.000;0.000;2024-02-04T09:19:19;3.33;;;1.80;;
48777;SDS011;34578;0.000;0.000;2024-02-04T09:24:19;4.60;;;1.90;;
48777;SDS011;34578;0.000;0.000;2024-02-04T09:29:20;3.33;;;1.63;;
48777;SDS011;34578;0.000;0.000;2024-02-04T09:34:21;5.03;;;1.98;;
48777;SDS011;34578;0.000;0.000;2024-02-04T09:39:21;4.68;;;2.03;;
48777;SDS011;34578;0.000;0.000;2024-02-04T09:44:22;4.15;;;1.20;;
48777;SDS011;34578;0.000;0.000;2024-02-04T09:49:23;2.92;;;1.60;;
48777;SDS011;34578;0.000;0.000;2024-02-04T09:54:24;5.20;;;1.58;;
48777;SDS011;34578;0.000;0.000;2024-02-04T09:59:27;10.73;;;1.95;;
48777;SDS011;34578;0.000;0.000;2024-02-04T10:04:27;8.90;;;1.48;;
48777;SDS011;34578;0.000;0.000;2024-02-04T10:09:28;4.33;;;0.93;;
48777;SDS011;34578;0.000;0.000;2024-02-04T10:14:30;6.32;;;1.50;;
48777;SDS011;34578;0.000;0.000;2024-02-04T10:19:30;7.63;;;1.47;;
48777;SDS011;34578;0.000;0.000;2024-02-04T10:24:30;5.38;;;2.10;;
48777;SDS011;34578;0.000;0.000;2024-02-04T10:29:31;8.73;;;1.77;;
48777;SDS011;34578;0.000;0.000;2024-02-04T10:34:31;6.65;;;1.40;;
48777;SDS011;34578;0.000;0.000;2024-02-04T10:39:32;8.23;;;1.47;;
48777;SDS011;34578;0.000;0.000;2024-02-04T10:44:35;6.57;;;1.33;;
48777;SDS011;34578;0.000;0.000;2024-02-04T10:49:37;10.82;;;1.83;;
48777;SDS011;34578;0.000;0.000;2024-02-04T10:54:41;8.70;;;1.73;;
48777;SDS011;34578;0.000;0.000;2024-02-04T10:59:43;6.50;;;1.75;;
48777;SDS011;34578;0.000;0.000;2024-02-04T11:04:43;4.53;;;2.03;;
48777;SDS011;34578;0.000;0.000;2024-02-04T11:09:48;6.45;;;1.90;;
48777;SDS011;34578;0.000;0.000;2024-02-04T11:14:51;7.13;;;1.73;;
48777;SDS011;34578;0.000;0.000;2024-02-04T11:25:29;15.55;;;3.15;;
48777;SDS011;34578;0.000;0.000;2024-02-04T11:30:46;14.60;;;1.73;;
48777;SDS011;34578;0.000;0.000;2024-02-04T11:35:58;8.10;;;1.67;;
48777;SDS011;34578;0.000;0.000;2024-02-04T11:41:07;15.20;;;2.97;;
48777;SDS011;34578;0.000;0.000;2024-02-04T11:46:15;12.05;;;1.42;;
48777;SDS011;34578;0.000;0.000;2024-02-04T11:51:17;6.45;;;1.60;;
48777;SDS011;34578;0.000;0.000;2024-02-04T11:56:21;6.75;;;1.90;;
48777;SDS011;34578;0.000;0.000;2024-02-04T12:01:23;3.45;;;1.67;;
48777;SDS011;34578;0.000;0.000;2024-02-04T12:06:24;5.03;;;1.13;;
48777;SDS011;34578;0.000;0.000;2024-02-04T12:11:25;1.70;;;1.00;;
48777;SDS011;34578;0.000;0.000;2024-02-04T12:16:25;4.90;;;1.42;;
48777;SDS011;34578;0.000;0.000;2024-02-04T12:21:26;5.13;;;1.30;;
48777;SDS011;34578;0.000;0.000;2024-02-04T12:26:26;4.15;;;1.27;;
48777;SDS011;34578;0.000;0.000;2024-02-04T12:31:27;4.35;;;1.38;;
48777;SDS011;34578;0.000;0.000;2024-02-04T12:36:31;5.70;;;1.00;;
48777;SDS011;34578;0.000;0.000;2024-02-04T12:41:32;8.90;;;1.42;;
48777;SDS011;34578;0.000;0.000;2024-02-04T12:46:33;4.15;;;0.98;;
48777;SDS011;34578;0.000;0.000;2024-02-04T12:51:33;3.37;;;0.67;;
48777;SDS011;34578;0.000;0.000;2024-02-04T13:01:57;2.40;;;0.98;;
48777;SDS011;34578;0.000;0.000;2024-02-04T13:07:00;3.47;;;0.90;;
48777;SDS011;34578;0.000;0.000;2024-02-04T13:12:04;1.20;;;0.85;;
48777;SDS011;34578;0.000;0.000;2024-02-04T13:17:11;1.67;;;1.13;;
48777;SDS011;34578;0.000;0.000;2024-02-04T13:22:11;1.37;;;0.90;;
48777;SDS011;34578;0.000;0.000;2024-02-04T13:27:14;1.90;;;1.13;;
48777;SDS011;34578;0.000;0.000;2024-02-04T13:32:15;0.95;;;0.63;;
48777;SDS011;34578;0.000;0.000;2024-02-04T13:37:15;3.80;;;1.10;;
48777;SDS011;34578;0.000;0.000;2024-02-04T13:42:16;1.85;;;0.90;;
48777;SDS011;34578;0.000;0.000;2024-02-04T13:47:16;2.63;;;0.93;;
48777;SDS011;34578;0.000;0.000;2024-02-04T13:52:17;4.05;;;1.00;;
48777;SDS011;34578;0.000;0.000;2024-02-04T13:57:17;1.90;;;0.77;;
48777;SDS011;34578;0.000;0.000;2024-02-04T14:02:17;1.98;;;0.43;;
48777;SDS011;34578;0.000;0.000;2024-02-04T14:07:18;10.32;;;1.65;;
48777;SDS011;34578;0.000;0.000;2024-02-04T14:12:19;6.75;;;1.00;;
48777;SDS011;34578;0.000;0.000;2024-02-04T14:17:20;8.00;;;2.50;;
48777;SDS011;34578;0.000;0.000;2024-02-04T14:22:20;8.75;;;0.90;;
48777;SDS011;34578;0.000;0.000;2024-02-04T14:27:22;6.32;;;1.00;;
48777;SDS011;34578;0.000;0.000;2024-02-04T14:32:23;5.18;;;1.17;;
48777;SDS011;34578;0.000;0.000;2024-02-04T14:37:23;6.70;;;0.90;;
48777;SDS011;34578;0.000;0.000;2024-02-04T14:42:23;6.32;;;1.42;;
48777;SDS011;34578;0.000;0.000;2024-02-04T14:47:24;15.23;;;1.10;;
48777;SDS011;34578;0.000;0.000;2024-02-04T14:52:24;1.63;;;0.70;;
48777;SDS011;34578;0.000;0.000;2024-02-04T14:57:25;9.23;;;1.33;;
48777;SDS011;34578;0.000;0.000;2024-02-04T15:02:25;10.60;;;0.93;;
48777;SDS011;34578;0.000;0.000;2024-02-04T15:07:25;1.83;;;0.63;;
48777;SDS011;34578;0.000;0.000;2024-02-04T15:12:26;8.43;;;1.20;;
48777;SDS011;34578;0.000;0.000;2024-02-04T15:17:27;3.72;;;0.90;;
48777;SDS011;34578;0.000;0.000;2024-02-04T15:22:28;5.57;;;1.05;;
48777;SDS011;34578;0.000;0.000;2024-02-04T15:27:28;8.30;;;1.38;;
48777;SDS011;34578;0.000;0.000;2024-02-04T15:32:30;5.13;;;2.17;;
48777;SDS011;34578;0.000;0.000;2024-02-04T15:37:30;7.18;;;1.55;;
48777;SDS011;34578;0.000;0.000;2024-02-04T15:42:31;7.72;;;1.67;;
48777;SDS011;34578;0.000;0.000;2024-02-04T15:47:31;4.60;;;0.90;;
48777;SDS011;34578;0.000;0.000;2024-02-04T15:52:32;8.40;;;1.17;;
48777;SDS011;34578;0.000;0.000;2024-02-04T15:57:33;2.65;;;1.10;;
48777;SDS011;34578;0.000;0.000;2024-02-04T16:02:35;8.40;;;0.88;;
48777;SDS011;34578;0.000;0.000;2024-02-04T16:07:36;3.88;;;0.90;;
48777;SDS011;34578;0.000;0.000;2024-02-04T16:12:36;5.07;;;1.00;;
48777;SDS011;34578;0.000;0.000;2024-02-04T16:17:40;4.15;;;0.90;;
48777;SDS011;34578;0.000;0.000;2024-02-04T16:22:42;5.90;;;1.00;;
48777;SDS011;34578;0.000;0.000;2024-02-04T16:27:42;1.97;;;0.80;;
48777;SDS011;34578;0.000;0.000;2024-02-04T16:32:44;4.70;;;1.73;;
48777;SDS011;34578;0.000;0.000;2024-02-04T16:37:45;8.07;;;2.07;;
48777;SDS011;34578;0.000;0.000;2024-02-04T16:42:46;3.83;;;0.90;;
48777;SDS011;34578;0.000;0.000;2024-02-04T16:47:47;7.67;;;2.73;;
48777;SDS011;34578;0.000;0.000;2024-02-04T16:52:47;13.10;;;3.03;;
48777;SDS011;34578;0.000;0.000;2024-02-04T16:57:47;14.67;;;3.47;;
48777;SDS011;34578;0.000;0.000;2024-02-04T17:02:48;7.30;;;2.80;;
48777;SDS011;34578;0.000;0.000;2024-02-04T17:07:48;12.00;;;3.85;;
48777;SDS011;34578;0.000;0.000;2024-02-04T17:12:49;5.10;;;1.98;;
48777;SDS011;34578;0.000;0.000;2024-02-04T17:17:53;10.25;;;2.45;;
48777;SDS011;34578;0.000;0.000;2024-02-04T17:23:06;9.65;;;3.10;;
48777;SDS011;34578;0.000;0.000;2024-02-04T17:28:08;6.60;;;2.35;;
48777;SDS011;34578;0.000;0.000;2024-02-04T17:33:09;7.53;;;2.40;;
48777;SDS011;34578;0.000;0.000;2024-02-04T17:38:10;6.30;;;1.90;;
48777;SDS011;34578;0.000;0.000;2024-02-04T17:43:10;4.33;;;1.97;;
48777;SDS011;34578;0.000;0.000;2024-02-04T17:48:11;5.47;;;2.30;;
48777;SDS011;34578;0.000;0.000;2024-02-04T17:53:13;5.35;;;2.53;;
48777;SDS011;34578;0.000;0.000;2024-02-04T17:58:13;7.07;;;2.50;;
48777;SDS011;34578;0.000;0.000;2024-02-04T18:03:14;5.63;;;2.03;;
48777;SDS011;34578;0.000;0.000;2024-02-04T18:08:14;5.57;;;2.00;;
48777;SDS011;34578;0.000;0.000;2024-02-04T18:13:14;4.70;;;1.70;;
48777;SDS011;34578;0.000;0.000;2024-02-04T18:18:15;8.32;;;2.15;;
48777;SDS011;34578;0.000;0.000;2024-02-04T18:23:16;6.03;;;1.90;;
48777;SDS011;34578;0.000;0.000;2024-02-04T18:28:16;11.50;;;2.30;;
48777;SDS011;34578;0.000;0.000;2024-02-04T18:33:16;8.57;;;2.27;;
48777;SDS011;34578;0.000;0.000;2024-02-04T18:38:17;4.23;;;2.13;;
48777;SDS011;34578;0.000;0.000;2024-02-04T18:43:17;3.37;;;1.77;;
48777;SDS011;34578;0.000;0.000;2024-02-04T18:48:17;2.03;;;1.30;;
48777;SDS011;34578;0.000;0.000;2024-02-04T18:53:18;4.90;;;1.48;;
48777;SDS011;34578;0.000;0.000;2024-02-04T18:58:18;2.77;;;1.63;;
48777;SDS011;34578;0.000;0.000;2024-02-04T19:03:21;2.38;;;1.40;;
48777;SDS011;34578;0.000;0.000;2024-02-04T19:08:21;3.47;;;1.30;;
48777;SDS011;34578;0.000;0.000;2024-02-04T19:13:22;2.90;;;1.13;;
48777;SDS011;34578;0.000;0.000;2024-02-04T19:18:22;2.20;;;1.27;;
48777;SDS011;34578;0.000;0.000;2024-02-04T19:23:23;2.77;;;1.37;;
48777;SDS011;34578;0.000;0.000;2024-02-04T19:28:23;3.63;;;1.10;;
48777;SDS011;34578;0.000;0.000;2024-02-04T19:33:23;2.10;;;1.33;;
48777;SDS011;34578;0.000;0.000;2024-02-04T19:38:25;2.83;;;1.42;;
48777;SDS011;34578;0.000;0.000;2024-02-04T19:43:26;2.53;;;1.90;;
48777;SDS011;34578;0.000;0.000;2024-02-04T19:48:29;2.58;;;1.35;;
48777;SDS011;34578;0.000;0.000;2024-02-04T19:53:29;4.30;;;1.50;;
48777;SDS011;34578;0.000;0.000;2024-02-04T19:58:30;1.70;;;1.23;;
48777;SDS011;34578;0.000;0.000;2024-02-04T20:03:30;2.50;;;1.00;;
48777;SDS011;34578;0.000;0.000;2024-02-04T20:08:30;1.90;;;1.20;;
48777;SDS011;34578;0.000;0.000;2024-02-04T20:13:31;2.47;;;1.30;;
48777;SDS011;34578;0.000;0.000;2024-02-04T20:18:37;2.08;;;0.90;;
48777;SDS011;34578;0.000;0.000;2024-02-04T20:23:38;2.03;;;1.10;;
48777;SDS011;34578;0.000;0.000;2024-02-04T20:28:38;1.37;;;1.27;;
48777;SDS011;34578;0.000;0.000;2024-02-04T20:33:39;2.22;;;1.30;;
48777;SDS011;34578;0.000;0.000;2024-02-04T20:38:42;2.63;;;0.90;;
48777;SDS011;34578;0.000;0.000;2024-02-04T20:43:43;1.30;;;1.00;;
48777;SDS011;34578;0.000;0.000;2024-02-04T20:48:46;1.63;;;1.02;;
48777;SDS011;34578;0.000;0.000;2024-02-04T20:53:47;1.52;;;0.82;;
48777;SDS011;34578;0.000;0.000;2024-02-04T20:58:47;1.37;;;0.87;;
48777;SDS011;34578;0.000;0.000;2024-02-04T21:03:47;1.40;;;0.83;;
48777;SDS011;34578;0.000;0.000;2024-02-04T21:08:48;1.53;;;1.03;;
48777;SDS011;34578;0.000;0.000;2024-02-04T21:13:49;1.83;;;1.25;;
48777;SDS011;34578;0.000;0.000;2024-02-04T21:18:49;2.78;;;0.90;;
48777;SDS011;34578;0.000;0.000;2024-02-04T21:23:50;2.00;;;0.80;;
48777;SDS011;34578;0.000;0.000;2024-02-04T21:28:50;3.70;;;1.30;;
48777;SDS011;34578;0.000;0.000;2024-02-04T21:33:50;2.83;;;1.17;;
48777;SDS011;34578;0.000;0.000;2024-02-04T21:38:51;2.27;;;1.13;;
48777;SDS011;34578;0.000;0.000;2024-02-04T21:43:51;1.97;;;1.00;;
48777;SDS011;34578;0.000;0.000;2024-02-04T21:48:51;1.97;;;1.20;;
48777;SDS011;34578;0.000;0.000;2024-02-04T21:53:52;1.90;;;0.93;;
48777;SDS011;34578;0.000;0.000;2024-02-04T21:58:52;0.90;;;0.77;;
48777;SDS011;34578;0.000;0.000;2024-02-04T22:03:52;1.57;;;1.20;;
48777;SDS011;34578;0.000;0.000;2024-02-04T22:08:53;1.40;;;1.17;;
48777;SDS011;34578;0.000;0.000;2024-02-04T22:13:53;0.93;;;0.70;;
48777;SDS011;34578;0.000;0.000;2024-02-04T22:18:54;0.88;;;0.80;;
48777;SDS011;34578;0.000;0.000;2024-02-04T22:23:54;1.23;;;1.07;;
48777;SDS011;34578;0.000;0.000;2024-02-04T22:28:55;1.00;;;0.60;;
48777;SDS011;34578;0.000;0.000;2024-02-04T22:33:55;2.00;;;0.70;;
48777;SDS011;34578;0.000;0.000;2024-02-04T22:38:56;1.40;;;0.82;;
48777;SDS011;34578;0.000;0.000;2024-02-04T22:43:56;0.83;;;0.67;;
48777;SDS011;34578;0.000;0.000;2024-02-04T22:48:56;0.93;;;0.83;;
48777;SDS011;34578;0.000;0.000;2024-02-04T22:53:57;1.10;;;0.82;;
48777;SDS011;34578;0.000;0.000;2024-02-04T22:58:58;1.20;;;1.10;;
48777;SDS011;34578;0.000;0.000;2024-02-04T23:03:59;0.53;;;0.50;;
48777;SDS011;34578;0.000;0.000;2024-02-04T23:08:59;1.33;;;0.60;;
48777;SDS011;34578;0.000;0.000;2024-02-04T23:13:59;0.50;;;0.47;;
48777;SDS011;34578;0.000;0.000;2024-02-04T23:19:00;1.10;;;0.60;;
48777;SDS011;34578;0.000;0.000;2024-02-04T23:24:01;1.10;;;0.70;;
48777;SDS011;34578;0.000;0.000;2024-02-04T23:29:01;0.80;;;0.73;;
48777;SDS011;34578;0.000;0.000;2024-02-04T23:34:01;0.63;;;0.50;;
48777;SDS011;34578;0.000;0.000;2024-02-04T23:39:02;0.57;;;0.50;;
48777;SDS011;34578;0.000;0.000;2024-02-04T23:44:02;1.13;;;0.70;;
48777;SDS011;34578;0.000;0.000;2024-02-04T23:49:03;0.85;;;0.68;;
48777;SDS011;34578;0.000;0.000;2024-02-04T23:54:04;0.60;;;0.60;;
48777;SDS011;34578;0.000;0.000;2024-02-04T23:59:04;1.07;;;0.67;;
